Stations météo

Publicité
Cap Gris Nez, France (7004): Température de l'air & dewpoint: 06.12.2018 20:00:00 - 12.12.2018 20:00:00 (CET)Cap Gris Nez, France (7004): Vitesse du vent & gusts: 06.12.2018 20:00:00 - 12.12.2018 20:00:00 (CET)Cap Gris Nez, France (7004): Direction du vent: 06.12.2018 20:00:00 - 12.12.2018 20:00:00 (CET)Cap Gris Nez, France (7004): Quantités de précipitations: 06.12.2018 20:00:00 - 12.12.2018 20:00:00 (CET)
Date & Time tt [°C] td [°C] ff [km/h] ff [knt] fx [km/h] fx [knt] dd rr [mm]
12.12.2018 20:00:00 - - - - - - - -
12.12.2018 19:00:00 2,4 0,1 16 9 26 14 E -
12.12.2018 18:00:00 2,7 0,1 16 9 22 12 ESE 0,0
12.12.2018 17:00:00 3,1 0,0 16 9 21 11 E 0,0
12.12.2018 16:00:00 4,5 -0,3 11 6 16 9 E 0,0
12.12.2018 15:00:00 6,4 -2,2 13 7 28 15 ESE 0,0
12.12.2018 14:00:00 6,4 -2,8 15 8 29 16 ESE 0,0
12.12.2018 13:00:00 6,2 -1,9 16 9 29 16 SE -
12.12.2018 12:00:00 5,6 -1,6 18 10 26 14 SE 0,0
12.12.2018 11:00:00 4,5 -1,7 18 10 34 18 SE 0,0
12.12.2018 10:00:00 3,3 -1,8 21 11 29 16 SE 0,0
12.12.2018 09:00:00 2,5 -1,7 15 8 21 11 SE 0,0
12.12.2018 08:00:00 3,8 -1,0 11 6 21 11 SE 0,0
12.12.2018 07:00:00 4,3 -0,7 13 7 18 10 SE -
12.12.2018 06:00:00 4,6 -0,6 13 7 24 13 SE 0,0
12.12.2018 05:00:00 4,8 -0,4 16 9 28 15 SSE 0,0
12.12.2018 04:00:00 5,1 -0,1 16 9 31 17 S 0,0
12.12.2018 03:00:00 5,2 1,1 22 12 31 17 SSE 0,0
12.12.2018 02:00:00 5,5 1,2 22 12 31 17 SE 0,0
12.12.2018 01:00:00 5,3 1,4 21 11 28 15 SE -
12.12.2018 00:00:00 5,7 2,2 16 9 24 13 SE 0,0
11.12.2018 23:00:00 5,7 2,2 9 5 22 12 ESE 0,0
11.12.2018 22:00:00 6,0 2,6 13 7 21 11 SE 0,0
11.12.2018 21:00:00 5,9 2,9 15 8 22 12 SE 0,0
11.12.2018 20:00:00 5,2 2,7 15 8 21 11 SE 0,0
11.12.2018 19:00:00 5,0 2,7 16 9 21 11 SSE -
11.12.2018 18:00:00 6,1 3,4 13 7 16 9 SE 0,0
11.12.2018 17:00:00 6,6 3,2 11 6 15 8 SSE 0,0
11.12.2018 16:00:00 7,5 3,2 8 4 11 6 SSE 0,0
11.12.2018 15:00:00 8,8 2,6 5 3 18 10 E 0,0
11.12.2018 14:00:00 9,3 4,1 11 6 16 9 ESE 0,0
11.12.2018 13:00:00 8,3 3,3 5 3 13 7 SE -
11.12.2018 12:00:00 8,4 4,0 8 4 13 7 SE 0,0
11.12.2018 11:00:00 6,7 3,7 9 5 13 7 SE 0,0
11.12.2018 10:00:00 7,9 3,5 2 1 4 2 SE 0,0
11.12.2018 09:00:00 6,8 3,2 4 2 5 3 E 0,0
11.12.2018 08:00:00 7,0 3,6 4 2 5 3 ENE 0,0
11.12.2018 07:00:00 6,9 3,1 2 1 5 3 ENE -
11.12.2018 06:00:00 6,9 3,7 4 2 8 4 ESE 0,0
11.12.2018 05:00:00 7,4 3,8 4 2 16 9 NE 0,0
11.12.2018 04:00:00 7,4 4,0 9 5 16 9 NNE 0,0
11.12.2018 03:00:00 7,6 4,2 13 7 18 10 NNW 0,0
11.12.2018 02:00:00 7,7 4,5 13 7 18 10 N 0,0
11.12.2018 01:00:00 7,9 4,7 13 7 18 10 NW -
11.12.2018 00:00:00 8,0 4,9 15 8 28 15 NNW 0,0
10.12.2018 23:00:00 8,3 5,2 18 10 31 17 NNW 0,0
10.12.2018 22:00:00 8,4 4,6 21 11 34 18 NW 0,0
10.12.2018 21:00:00 8,4 5,0 22 12 34 18 NNW 0,0
10.12.2018 20:00:00 8,6 5,0 22 12 34 18 NNW 0,0
10.12.2018 19:00:00 8,7 4,9 22 12 35 19 NW -
10.12.2018 18:00:00 8,9 4,7 24 13 37 20 NW 0,0
10.12.2018 17:00:00 9,0 4,8 24 13 39 21 NW 0,0
10.12.2018 16:00:00 9,1 5,1 26 14 37 20 NW 0,0
10.12.2018 15:00:00 9,0 5,0 26 14 39 21 NW 0,0
10.12.2018 14:00:00 9,0 5,0 28 15 41 22 NW 0,0
10.12.2018 13:00:00 8,8 5,5 29 16 42 23 NW -
10.12.2018 12:00:00 8,7 5,6 31 17 50 27 NW 0,0
10.12.2018 11:00:00 8,6 5,5 34 18 46 25 NW 0,0
10.12.2018 10:00:00 8,3 5,4 31 17 50 27 NW 0,0
10.12.2018 09:00:00 8,4 5,5 37 20 54 29 NW 0,0
10.12.2018 08:00:00 8,2 5,5 39 21 52 28 WNW 0,0
10.12.2018 07:00:00 8,3 5,4 37 20 52 28 WNW -
10.12.2018 06:00:00 8,5 5,6 37 20 55 30 WNW 0,0
10.12.2018 05:00:00 8,3 5,6 39 21 54 29 WNW 0,0
10.12.2018 04:00:00 8,5 5,6 39 21 50 27 W 0,0
10.12.2018 03:00:00 8,8 5,4 37 20 50 27 W 0,0
10.12.2018 02:00:00 8,7 5,1 37 20 48 26 W 0,0
10.12.2018 01:00:00 8,9 4,9 35 19 52 28 WNW -
10.12.2018 00:00:00 9,3 5,3 34 18 48 26 WNW 0,0
09.12.2018 23:00:00 9,5 4,7 34 18 57 31 WNW 0,0
09.12.2018 22:00:00 9,6 5,0 34 18 50 27 WNW 0,0
09.12.2018 21:00:00 9,5 4,5 34 18 61 33 NW 0,0
09.12.2018 20:00:00 9,7 3,9 50 27 72 39 NW 0,0
09.12.2018 19:00:00 10,0 4,8 42 23 59 32 NW -
09.12.2018 18:00:00 10,3 5,1 41 22 57 31 WNW 0,0
09.12.2018 17:00:00 10,1 4,7 41 22 63 34 NW 0,0
09.12.2018 16:00:00 10,1 4,9 41 22 65 35 NW 0,0
09.12.2018 15:00:00 9,9 4,7 46 25 68 37 NW 0,0
09.12.2018 14:00:00 9,1 6,4 42 23 67 36 NW 0,4
09.12.2018 13:00:00 10,3 7,2 48 26 67 36 W -
09.12.2018 12:00:00 10,7 7,0 48 26 80 43 W 0,0
09.12.2018 11:00:00 10,6 6,9 57 31 76 41 W 0,0
09.12.2018 10:00:00 10,4 6,7 61 33 85 46 W 0,0
09.12.2018 09:00:00 10,6 6,5 68 37 91 49 W 0,0
09.12.2018 08:00:00 10,5 6,4 68 37 96 52 W 0,0
09.12.2018 07:00:00 10,4 6,0 78 42 98 53 W -
09.12.2018 06:00:00 10,1 5,9 78 42 113 61 W 0,0
09.12.2018 05:00:00 10,3 5,9 78 42 106 57 W 0,0
09.12.2018 04:00:00 9,9 5,7 81 44 106 57 W 0,0
09.12.2018 03:00:00 10,3 5,9 81 44 107 58 W 0,0
09.12.2018 02:00:00 10,4 6,0 78 42 107 58 W 0,0
09.12.2018 01:00:00 10,7 6,3 80 43 104 56 W -
09.12.2018 00:00:00 10,9 6,2 78 42 100 54 W 0,0
08.12.2018 23:00:00 10,8 6,7 70 38 96 52 W 0,0
08.12.2018 22:00:00 10,9 6,8 76 41 100 54 W 0,0
08.12.2018 21:00:00 11,5 7,8 72 39 94 51 WSW 0,0
08.12.2018 20:00:00 11,6 8,8 67 36 104 56 W 0,0
08.12.2018 19:00:00 11,9 9,8 72 39 100 54 WSW -
08.12.2018 18:00:00 11,9 10,8 74 40 100 54 WSW 0,2
08.12.2018 17:00:00 11,6 10,8 63 34 91 49 SW 1,0
08.12.2018 16:00:00 11,4 10,3 63 34 85 46 WSW 0,4
08.12.2018 15:00:00 11,4 9,6 65 35 89 48 WSW 0,2
08.12.2018 14:00:00 11,5 8,2 68 37 98 53 WSW 0,0
08.12.2018 13:00:00 11,3 7,0 76 41 98 53 WSW -
08.12.2018 12:00:00 11,1 6,0 74 40 100 54 WSW 0,0
08.12.2018 11:00:00 10,8 6,3 74 40 100 54 W 0,0
08.12.2018 10:00:00 10,4 5,8 80 43 100 54 WSW 0,0
08.12.2018 09:00:00 10,6 6,0 74 40 96 52 W 0,0
08.12.2018 08:00:00 10,6 5,6 76 41 94 51 W 0,0
08.12.2018 07:00:00 10,7 5,4 78 42 98 53 W -
08.12.2018 06:00:00 10,4 5,2 74 40 100 54 W 0,0
08.12.2018 05:00:00 10,5 5,5 78 42 100 54 W 0,0
08.12.2018 04:00:00 10,6 5,8 74 40 98 53 W 0,0
08.12.2018 03:00:00 10,7 5,7 80 43 104 56 W 0,0
08.12.2018 02:00:00 10,6 5,6 78 42 106 57 WSW 0,0
08.12.2018 01:00:00 10,3 5,3 80 43 102 55 WSW -
08.12.2018 00:00:00 10,1 5,1 80 43 96 52 W 0,0
07.12.2018 23:00:00 9,2 4,2 74 40 94 51 W 0,0
07.12.2018 22:00:00 9,4 4,2 74 40 96 52 W 0,0
07.12.2018 21:00:00 9,4 4,2 68 37 91 49 W 0,0
07.12.2018 20:00:00 9,2 3,8 70 38 89 48 W 0,0
07.12.2018 19:00:00 9,5 3,5 74 40 93 50 W -
07.12.2018 18:00:00 9,4 4,4 74 40 93 50 W 0,0
07.12.2018 17:00:00 10,0 4,8 67 36 93 50 W 0,0
07.12.2018 16:00:00 10,3 5,5 65 35 94 51 W 0,0
07.12.2018 15:00:00 10,2 9,6 61 33 85 46 W 0,2
07.12.2018 14:00:00 10,2 9,9 67 36 115 62 WSW 2,0
07.12.2018 13:00:00 10,7 10,4 65 35 81 44 SSW -
07.12.2018 12:00:00 10,7 10,2 55 30 100 54 SSW 3,0
07.12.2018 11:00:00 11,6 9,8 68 37 94 51 SSW 0,2
07.12.2018 10:00:00 11,6 10,3 68 37 96 52 SSW 0,0
07.12.2018 09:00:00 11,7 10,4 59 32 85 46 SSW 0,0
07.12.2018 08:00:00 11,4 10,9 55 30 81 44 SSW 0,0
07.12.2018 07:00:00 11,5 11,2 52 28 85 46 SW -
07.12.2018 06:00:00 11,5 11,3 55 30 80 43 SW 0,2
07.12.2018 05:00:00 11,6 11,4 52 28 70 38 SW 0,0
07.12.2018 04:00:00 11,5 11,3 48 26 68 37 SW 0,0
07.12.2018 03:00:00 11,6 11,4 46 25 65 35 SW 0,0
07.12.2018 02:00:00 11,5 11,2 44 24 63 34 SW 0,0
07.12.2018 01:00:00 11,4 11,1 42 23 67 36 SW -
07.12.2018 00:00:00 11,6 11,3 44 24 68 37 SW 0,8
06.12.2018 23:00:00 11,6 11,3 44 24 70 38 SW 0,0
06.12.2018 22:00:00 11,7 11,2 48 26 70 38 SW 1,0
06.12.2018 21:00:00 11,7 11,1 41 22 59 32 SW 0,2
06.12.2018 20:00:00 11,9 10,8 41 22 67 36 SW 0,0

tt = Température de l'air
td = dewpoint
ff = Vitesse du vent
fx = gusts
dd = Direction du vent
rr = Quantités de précipitations

stations d'obs. à proximité